Hundvaag 1 weather for Jan 2002
Month no. 175
Obs.
Da.
Temp. Dew Point Precip. Wind
Speed
Wind gusts Cloud cover Press. Humidity Wind dir. Sunny OPT
01.01.2002 6,0   3,9     0 1015,9        
02.01.2002 1,0   7,4     4 1022,1     1  
03.01.2002 1,9   0,0     0 1026,4        
04.01.2002 -1,7   0,0     10 1025,4     1  
05.01.2002 3,0   0,0     0 1023,7        
06.01.2002 5,8   1,7     0 1023,1        
07.01.2002 2,2   0,1     0 1023,8        
08.01.2002 5,1   0,5     0 1022,7        
09.01.2002 5,3   2,6     0 1023,5        
10.01.2002 4,2   1,6     0 1023,5        
11.01.2002 4,7   1,6     0 1020,7        
12.01.2002 5,2   0,1     0 1020,1        
13.01.2002 6,7   0,9     2 1017,4     1  
14.01.2002 6,8   6,6     0 1016,6        
15.01.2002 7,1   12,9     0 1010,0        
16.01.2002 5,0   1,7     0 1010,4        
17.01.2002 7,3   10,4     0 1009,9        
18.01.2002 4,6   15,3     10 1009,2     1  
19.01.2002 4,9   2,1     0 1002,8        
20.01.2002 5,2   6,1     0 1002,9        
21.01.2002 6,2   20,7     0 999,3        
22.01.2002 7,6   11,7     0 996,0        
23.01.2002 2,7   23,4     4 996,6     1  
24.01.2002 2,3   7,0     0 992,3        
25.01.2002 -0,2   5,4     0 1007,4        
26.01.2002 0,7   4,8     0 1000,0        
27.01.2002 1,6   5,4     0 1001,3        
28.01.2002 6,3   5,7     0 994,7     1  
29.01.2002 4,6   6,2     0 1001,3        
30.01.2002 0,3   9,4     2 1010,5     1  
31.01.2002 4,5   4,6     10 1003,3     1  
Avrg/Sum 4,1   179,8     1,4 1011,4     8